Time;durP1;ratioP1;P1;durP2;ratioP2;P2;SDS_P1;SDS_P2;PMS_P1;PMS_P2;Temp;Humidity;BMP_temperature;BMP_pressure;BME280_temperature;BME280_humidity;BME280_pressure;Samples;Min_cycle;Max_cycle;Signal;HPM_P1;HPM_P2
2023/08/23 00:00:32;;;;;;;0.90;0.90;;;;;;;22.62;75.37;97172.84;5040178;28;20060;-62
2023/08/23 00:02:59;;;;;;;0.98;0.98;;;;;;;22.60;75.34;97175.31;5039417;28;20156;-62
2023/08/23 00:05:26;;;;;;;1.00;1.00;;;;;;;22.56;75.37;97172.56;5040613;28;20059;-61
2023/08/23 00:07:53;;;;;;;0.90;0.90;;;;;;;22.54;75.40;97174.28;5040736;28;20048;-62
2023/08/23 00:10:19;;;;;;;1.00;1.00;;;;;;;22.44;75.57;97157.16;5038900;28;20815;-61
2023/08/23 00:12:46;;;;;;;1.00;1.00;;;;;;;22.53;75.34;97169.84;5040183;28;20083;-61
2023/08/23 00:15:13;;;;;;;1.00;1.00;;;;;;;22.59;75.75;97170.91;5039028;28;20048;-61
2023/08/23 00:17:39;;;;;;;0.80;0.80;;;;;;;;;;5041046;28;20177;-64
2023/08/23 00:20:06;;;;;;;1.08;1.08;;;;;;;22.48;75.45;97171.16;5041464;28;20482;-62
2023/08/23 00:22:33;;;;;;;0.90;0.90;;;;;;;22.51;75.07;97177.97;5039772;28;20064;-61
2023/08/23 00:25:00;;;;;;;0.90;0.90;;;;;;;22.60;74.95;97176.09;5041257;28;20045;-63
2023/08/23 00:27:27;;;;;;;0.95;0.95;;;;;;;22.22;75.43;97115.84;5039663;28;20053;-63
2023/08/23 00:29:53;;;;;;;0.90;0.90;;;;;;;22.54;74.83;97165.81;5039948;28;20048;-63
2023/08/23 00:32:20;;;;;;;1.00;1.00;;;;;;;22.55;75.65;97178.66;5041628;28;20504;-62
2023/08/23 00:34:47;;;;;;;1.00;1.00;;;;;;;22.02;75.54;97141.34;5040504;28;20463;-63
2023/08/23 00:37:13;;;;;;;1.00;1.00;;;;;;;22.27;74.98;97135.84;5041094;28;20056;-62
2023/08/23 00:39:40;;;;;;;1.00;1.00;;;;;;;22.41;75.43;97171.38;5025044;28;20567;-62
2023/08/23 00:42:06;;;;;;;1.08;1.08;;;;;;;22.29;75.12;97155.94;5019947;28;20054;-62
2023/08/23 00:44:33;;;;;;;1.00;1.00;;;;;;;22.30;76.13;97180.09;5021255;28;20526;-61
2023/08/23 00:47:00;;;;;;;0.95;0.95;;;;;;;22.22;76.52;97184.34;5024132;28;20065;-63
2023/08/23 00:49:33;;;;;;;0.90;0.90;;;;;;;21.91;76.60;97129.56;5024196;28;20053;-62
2023/08/23 00:52:04;;;;;;;0.95;0.95;;;;;;;22.18;77.17;97172.38;5024163;28;20053;-63
2023/08/23 00:54:31;;;;;;;0.90;0.90;;;;;;;22.27;76.61;97169.69;5022248;28;20443;-61
2023/08/23 00:57:01;;;;;;;1.00;1.00;;;;;;;22.24;76.30;97176.25;5022191;28;20068;-62
2023/08/23 00:59:30;;;;;;;1.10;1.10;;;;;;;22.19;76.63;97176.78;5022574;28;20156;-62
2023/08/23 01:01:57;;;;;;;0.90;0.90;;;;;;;21.90;77.25;97150.56;5024355;28;20061;-62
2023/08/23 01:04:23;;;;;;;0.90;0.90;;;;;;;22.12;77.08;97184.63;5022884;28;20659;-62
2023/08/23 01:06:53;;;;;;;0.90;0.90;;;;;;;22.14;76.93;97171.69;5023851;28;20063;-61
2023/08/23 01:09:41;;;;;;;0.90;0.90;;;;;;;22.12;76.92;97174.16;5024465;28;20357;-61
2023/08/23 01:12:17;;;;;;;1.00;1.00;;;;;;;22.03;77.20;97171.19;5023249;28;20088;-62
2023/08/23 01:14:59;;;;;;;0.90;0.90;;;;;;;21.82;77.69;97149.16;5023439;28;20068;-61
2023/08/23 01:17:27;;;;;;;1.10;1.10;;;;;;;22.00;77.26;97166.38;5023812;28;20149;-62
2023/08/23 01:19:56;;;;;;;0.90;0.90;;;;;;;21.99;77.39;97173.28;5023549;28;20132;-62
2023/08/23 01:22:23;;;;;;;1.00;1.00;;;;;;;21.86;78.11;97177.25;5021833;28;20401;-61
2023/08/23 01:24:51;;;;;;;0.90;0.90;;;;;;;21.91;78.25;97171.88;5023906;28;20056;-62
2023/08/23 01:27:18;;;;;;;1.00;1.00;;;;;;;21.63;78.02;97127.44;5023494;28;20128;-62
2023/08/23 01:29:45;;;;;;;0.90;0.90;;;;;;;22.00;77.50;97166.38;5023245;28;20077;-62
2023/08/23 01:32:24;;;;;;;0.90;0.90;;;;;;;21.90;78.08;97167.47;5022780;28;20530;-64
2023/08/23 01:34:55;;;;;;;1.00;1.00;;;;;;;21.89;77.85;97171.50;5021812;28;20495;-62
2023/08/23 01:37:23;;;;;;;0.90;0.90;;;;;;;21.58;78.01;97127.97;5023311;28;20053;-61
2023/08/23 01:39:52;;;;;;;1.00;1.00;;;;;;;21.59;79.05;97169.00;5038151;28;20140;-61
2023/08/23 01:42:21;;;;;;;1.00;1.00;;;;;;;21.62;79.69;97170.97;5042943;28;20060;-62
2023/08/23 01:44:50;;;;;;;0.90;0.90;;;;;;;21.18;79.25;97098.38;5041005;28;20080;-62
2023/08/23 01:47:18;;;;;;;0.90;0.90;;;;;;;21.28;79.32;97114.22;5042254;28;20526;-62
2023/08/23 01:49:45;;;;;;;0.90;0.90;;;;;;;21.38;79.27;97123.63;5042325;28;20099;-62
2023/08/23 01:52:11;;;;;;;0.90;0.90;;;;;;;21.75;78.89;97169.06;5042243;28;20052;-62
2023/08/23 01:54:38;;;;;;;0.85;0.85;;;;;;;21.65;79.06;97167.28;5040923;28;20421;-62
2023/08/23 01:57:05;;;;;;;0.90;0.90;;;;;;;21.65;78.92;97167.28;5040450;28;20061;-62
2023/08/23 01:59:31;;;;;;;0.90;0.90;;;;;;;21.66;79.29;97171.66;5042266;28;20053;-62
2023/08/23 02:01:58;;;;;;;0.90;0.90;;;;;;;21.33;79.11;97121.34;5040790;28;20051;-64
2023/08/23 02:04:25;;;;;;;0.88;0.88;;;;;;;21.70;78.90;97177.22;5042764;28;20478;-62
2023/08/23 02:06:51;;;;;;;1.00;1.00;;;;;;;21.70;78.75;97175.22;5043015;28;20444;-62
2023/08/23 02:09:18;;;;;;;0.82;0.82;;;;;;;21.69;78.02;97158.72;5043401;28;20049;-62
2023/08/23 02:11:45;;;;;;;0.90;0.90;;;;;;;21.74;78.17;97169.47;5040839;28;20500;-62
2023/08/23 02:14:11;;;;;;;0.80;0.80;;;;;;;21.79;77.81;97169.78;5042916;28;20219;-64
2023/08/23 02:16:38;;;;;;;1.05;1.05;;;;;;;21.73;78.06;97159.44;5042849;28;20506;-63
2023/08/23 02:19:04;;;;;;;0.90;0.90;;;;;;;21.50;77.90;97131.41;5043320;28;20053;-63
2023/08/23 02:21:31;;;;;;;0.93;0.93;;;;;;;21.81;78.34;97163.69;5043153;28;20122;-63
2023/08/23 02:23:58;;;;;;;0.90;0.90;;;;;;;21.88;77.74;97169.94;5042787;28;20487;-62
2023/08/23 02:26:25;;;;;;;0.90;0.90;;;;;;;21.68;77.59;97155.13;5042949;28;20047;-62
2023/08/23 02:28:51;;;;;;;0.80;0.80;;;;;;;21.79;78.01;97166.16;5041418;28;20057;-64
2023/08/23 02:31:18;;;;;;;0.90;0.90;;;;;;;21.79;77.97;97166.94;5041342;28;20550;-62
2023/08/23 02:33:45;;;;;;;0.90;0.90;;;;;;;21.82;77.41;97177.34;5041641;28;20134;-62
2023/08/23 02:36:11;;;;;;;0.82;0.82;;;;;;;21.73;77.82;97168.69;5040408;28;20518;-63
2023/08/23 02:38:38;;;;;;;1.10;1.10;;;;;;;21.75;77.66;97183.16;5034638;28;20050;-62
2023/08/23 02:41:05;;;;;;;0.80;0.80;;;;;;;21.26;78.32;97098.97;5022197;28;20057;-64
2023/08/23 02:43:31;;;;;;;0.80;0.80;;;;;;;21.47;79.46;97172.53;5023029;28;20056;-63
2023/08/23 02:45:58;;;;;;;0.82;0.82;;;;;;;21.51;79.15;97173.25;5022444;28;20057;-62
2023/08/23 02:48:25;;;;;;;0.80;0.80;;;;;;;21.42;79.30;97161.78;5020804;28;20049;-63
2023/08/23 02:50:52;;;;;;;0.90;0.90;;;;;;;21.45;79.44;97168.59;5022190;28;20597;-65
2023/08/23 02:53:19;;;;;;;0.90;0.90;;;;;;;21.40;79.66;97158.63;5022757;28;20053;-63
2023/08/23 02:55:45;;;;;;;0.90;0.90;;;;;;;20.93;79.28;97075.56;5022908;28;20053;-62
2023/08/23 02:58:12;;;;;;;1.00;1.00;;;;;;;21.40;79.71;97166.28;5022811;28;20053;-62
2023/08/23 03:00:39;;;;;;;0.93;0.93;;;;;;;21.34;80.15;97168.81;5021463;28;20433;-62
2023/08/23 03:03:05;;;;;;;0.82;0.82;;;;;;;21.31;80.31;97158.41;5023400;28;20152;-61
2023/08/23 03:05:32;;;;;;;1.00;1.00;;;;;;;21.30;80.30;97159.66;5022766;28;20077;-62
2023/08/23 03:07:59;;;;;;;0.80;0.80;;;;;;;21.35;80.37;97203.44;5020947;28;20323;-63
2023/08/23 03:10:25;;;;;;;0.90;0.90;;;;;;;21.37;80.08;97150.25;5022010;28;20710;-61
2023/08/23 03:12:52;;;;;;;0.90;0.90;;;;;;;21.08;80.13;97121.94;5021921;28;20053;-62
2023/08/23 03:15:19;;;;;;;0.85;0.85;;;;;;;21.31;80.50;97157.66;5020974;28;20079;-61
2023/08/23 03:17:46;;;;;;;0.80;0.80;;;;;;;21.33;80.51;97158.78;5022127;28;20399;-63
2023/08/23 03:20:13;;;;;;;0.85;0.85;;;;;;;21.30;80.24;97156.84;5021706;28;20057;-62
2023/08/23 03:22:40;;;;;;;0.90;0.90;;;;;;;21.24;80.46;97158.59;5011781;28;20383;-62
2023/08/23 03:25:07;;;;;;;0.90;0.90;;;;;;;21.33;80.32;97160.78;5002281;28;20523;-62
2023/08/23 03:27:33;;;;;;;0.90;0.90;;;;;;;20.93;79.94;97096.06;5002931;28;20399;-62
2023/08/23 03:30:00;;;;;;;1.00;1.00;;;;;;;21.27;80.41;97159.72;5001863;28;20049;-63
2023/08/23 03:32:27;;;;;;;0.80;0.80;;;;;;;21.09;80.42;97137.59;5001553;28;20056;-63
2023/08/23 03:34:54;;;;;;;0.90;0.90;;;;;;;21.35;79.99;97158.34;5032847;28;20058;-64
2023/08/23 03:37:20;;;;;;;0.90;0.90;;;;;;;21.16;80.83;97159.19;5032438;28;20056;-62
2023/08/23 03:39:47;;;;;;;0.90;0.90;;;;;;;21.16;80.89;97151.53;5016824;28;20270;-63
2023/08/23 03:42:16;;;;;;;0.90;0.90;;;;;;;21.21;80.63;97165.13;5029189;28;20068;-62
2023/08/23 03:44:43;;;;;;;0.90;0.90;;;;;;;20.77;80.50;97124.19;5041221;28;20048;-63
2023/08/23 03:47:10;;;;;;;0.90;0.90;;;;;;;21.13;80.75;97172.13;5041690;28;20049;-62
2023/08/23 03:49:36;;;;;;;0.93;0.93;;;;;;;21.15;80.91;97155.56;5041527;28;20057;-62
2023/08/23 03:52:03;;;;;;;0.93;0.93;;;;;;;21.18;80.82;97166.00;5041491;28;20462;-62
2023/08/23 03:54:30;;;;;;;0.80;0.80;;;;;;;21.27;80.58;97168.19;5041424;28;20053;-62
2023/08/23 03:56:57;;;;;;;0.80;0.80;;;;;;;21.24;80.72;97164.22;5041571;28;20474;-62
2023/08/23 03:59:23;;;;;;;0.90;0.90;;;;;;;21.25;80.59;97160.16;5039713;28;20148;-62
2023/08/23 04:01:50;;;;;;;0.90;0.90;;;;;;;21.26;80.46;97153.28;5039393;28;20053;-63
2023/08/23 04:04:17;;;;;;;0.80;0.80;;;;;;;21.33;80.46;97158.78;5041320;28;20063;-62
2023/08/23 04:06:44;;;;;;;0.90;0.90;;;;;;;21.46;79.91;97156.06;5039816;28;20063;-63
2023/08/23 04:09:11;;;;;;;0.80;0.80;;;;;;;21.40;79.84;97160.66;5040970;28;20373;-61
2023/08/23 04:11:37;;;;;;;0.90;0.90;;;;;;;21.38;79.77;97144.16;5039260;28;20431;-63
2023/08/23 04:14:04;;;;;;;0.90;0.90;;;;;;;21.18;79.59;97132.19;5039672;28;20063;-64
2023/08/23 04:16:31;;;;;;;0.80;0.80;;;;;;;21.37;80.56;97153.84;5039798;28;20055;-64
2023/08/23 04:18:58;;;;;;;0.80;0.80;;;;;;;21.59;79.22;97154.91;5041586;28;20092;-62
2023/08/23 04:21:25;;;;;;;0.80;0.80;;;;;;;21.68;79.05;97166.41;5045834;28;20045;-63
2023/08/23 04:23:52;;;;;;;0.80;0.80;;;;;;;21.70;78.66;97149.03;5046005;28;20353;-63
2023/08/23 04:26:19;;;;;;;0.90;0.90;;;;;;;21.76;78.41;97156.56;5043556;28;20144;-62
2023/08/23 04:28:47;;;;;;;0.80;0.80;;;;;;;21.75;78.23;97154.94;5044393;28;20274;-62
2023/08/23 04:31:13;;;;;;;0.90;0.90;;;;;;;21.83;78.00;97150.72;5044911;28;20102;-63
2023/08/23 04:33:41;;;;;;;0.90;0.90;;;;;;;21.83;77.98;97144.31;5044824;28;20051;-62
2023/08/23 04:36:08;;;;;;;0.90;0.90;;;;;;;22.03;77.63;97162.72;5043383;28;20658;-61
2023/08/23 04:38:35;;;;;;;0.77;0.77;;;;;;;21.98;77.77;97162.44;5038564;28;20403;-62
2023/08/23 04:41:03;;;;;;;0.80;0.80;;;;;;;21.99;77.90;97164.81;5023612;28;20055;-63
2023/08/23 04:43:30;;;;;;;0.90;0.90;;;;;;;21.86;77.41;97113.16;5042983;28;20056;-62
2023/08/23 04:45:58;;;;;;;1.00;1.00;;;;;;;22.16;76.86;97140.97;5043449;28;20144;-62
2023/08/23 04:48:26;;;;;;;0.80;0.80;;;;;;;22.29;76.98;97144.66;5043417;28;20083;-61
2023/08/23 04:50:55;;;;;;;0.90;0.90;;;;;;;22.53;75.91;97141.59;5043726;28;20522;-62
2023/08/23 04:53:22;;;;;;;1.00;1.00;;;;;;;22.49;75.05;97125.53;5043465;28;20451;-62
2023/08/23 04:55:49;;;;;;;1.10;1.10;;;;;;;22.74;74.55;97130.50;5041631;28;20051;-63
2023/08/23 04:58:16;;;;;;;1.00;1.00;;;;;;;22.93;74.34;97142.84;5043955;28;20049;-63
2023/08/23 05:00:44;;;;;;;0.90;0.90;;;;;;;22.83;73.21;97121.34;5042622;28;20160;-61
2023/08/23 05:03:12;;;;;;;1.00;1.00;;;;;;;23.05;73.40;97159.03;5041076;28;20060;-62
2023/08/23 05:05:40;;;;;;;1.00;1.00;;;;;;;23.32;72.22;97153.78;5042360;28;20049;-61
2023/08/23 05:08:07;;;;;;;1.00;1.00;;;;;;;23.38;71.37;97147.13;5042502;28;20513;-61
2023/08/23 05:10:34;;;;;;;0.90;0.90;;;;;;;23.10;71.67;97114.06;5041058;28;20068;-61
2023/08/23 05:13:01;;;;;;;1.00;1.00;;;;;;;23.70;70.61;97157.41;5042511;28;20048;-62
2023/08/23 05:15:28;;;;;;;1.00;1.00;;;;;;;23.91;69.77;97151.03;5043578;28;20501;-62
2023/08/23 05:17:55;;;;;;;1.00;1.00;;;;;;;24.01;69.74;97143.47;5043832;28;20049;-63
2023/08/23 05:20:21;;;;;;;1.10;1.10;;;;;;;24.02;69.77;97157.16;5043522;28;20056;-61
2023/08/23 05:22:48;;;;;;;1.00;1.00;;;;;;;23.77;70.83;97157.94;5043372;28;20064;-61
2023/08/23 05:25:15;;;;;;;1.17;1.17;;;;;;;24.14;68.98;97159.16;5042436;28;20052;-62
2023/08/23 05:27:42;;;;;;;1.20;1.20;;;;;;;23.79;68.35;97083.94;5042812;28;20145;-64
2023/08/23 05:30:09;;;;;;;1.10;1.10;;;;;;;24.40;67.32;97154.22;5042686;28;20053;-61
2023/08/23 05:32:36;;;;;;;1.10;1.10;;;;;;;24.65;67.39;97154.91;5043089;28;20053;-62
2023/08/23 05:35:03;;;;;;;1.33;1.33;;;;;;;24.56;67.33;97154.84;5042519;28;20503;-62
2023/08/23 05:37:30;;;;;;;1.20;1.20;;;;;;;24.75;66.74;97148.09;5043038;28;20572;-62
2023/08/23 05:39:56;;;;;;;1.10;1.10;;;;;;;25.05;65.66;97144.50;5042672;28;20642;-62
2023/08/23 05:42:23;;;;;;;1.25;1.25;;;;;;;25.38;64.54;97149.75;5042739;28;20570;-62
2023/08/23 05:44:50;;;;;;;1.20;1.20;;;;;;;25.56;63.67;97147.00;5041336;28;20056;-62
2023/08/23 05:47:17;;;;;;;1.30;1.30;;;;;;;25.75;63.07;97157.16;5041614;28;20521;-62
2023/08/23 05:49:44;;;;;;;1.50;1.50;;;;;;;25.83;62.76;97147.88;5044295;28;20083;-62
2023/08/23 05:52:11;;;;;;;1.10;1.10;;;;;;;25.82;62.11;97134.13;5043791;28;20201;-62
2023/08/23 05:54:38;;;;;;;1.30;1.30;;;;;;;25.94;62.24;97156.72;5043984;28;20064;-61
2023/08/23 05:57:05;;;;;;;1.58;1.58;;;;;;;26.17;61.88;97149.72;5042453;28;20464;-62
2023/08/23 05:59:33;;;;;;;1.25;1.25;;;;;;;24.81;60.65;96891.19;5041855;28;20990;-61
2023/08/23 06:02:00;;;;;;;1.15;1.15;;;;;;;25.94;60.04;97063.03;5042538;28;20811;-69
2023/08/23 06:04:27;;;;;;;1.40;1.40;;;;;;;26.78;59.68;97155.13;5032946;28;20128;-64
2023/08/23 06:06:54;;;;;;;1.40;1.40;;;;;;;26.66;58.86;97093.56;5029751;28;20060;-64
2023/08/23 06:09:21;;;;;;;1.40;1.40;;;;;;;26.84;58.39;97093.56;5050801;28;20059;-63
2023/08/23 06:11:47;;;;;;;1.30;1.30;;;;;;;27.43;57.92;97143.97;5042289;28;20148;-68
2023/08/23 06:14:22;;;;;;;1.58;1.58;;;;;;;26.97;56.55;97039.34;5042255;28;20459;-64
2023/08/23 06:16:49;;;;;;;1.70;1.70;;;;;;;27.81;56.31;97152.69;5031316;28;20140;-66
2023/08/23 06:19:16;;;;;;;1.58;1.58;;;;;;;27.93;55.58;97119.59;5037385;28;20052;-63
2023/08/23 06:21:44;;;;;;;1.48;1.48;;;;;;;27.86;54.49;97103.59;5037849;28;20045;-66
2023/08/23 06:24:10;;;;;;;1.55;1.55;;;;;;;28.44;53.65;97142.19;5042769;28;20053;-64
2023/08/23 06:26:37;;;;;;;1.75;1.75;;;;;;;28.44;53.37;97119.41;5034136;28;20170;-60
2023/08/23 06:29:04;;;;;;;1.67;1.67;;;;;;;28.41;53.23;97074.75;5041294;28;20128;-64
2023/08/23 06:31:30;;;;;;;1.77;1.77;;;;;;;28.86;52.74;97111.44;5040067;28;20041;-62
2023/08/23 06:33:57;;;;;;;1.70;1.70;;;;;;;28.00;50.46;96943.41;5021560;28;20072;-72
2023/08/23 06:36:24;;;;;;;1.50;1.50;;;;;;;29.32;50.08;97121.13;5038519;28;20053;-62
2023/08/23 06:38:51;;;;;;;1.70;1.70;;;;;;;29.61;48.87;97141.06;5039706;28;20597;-63
2023/08/23 06:41:17;;;;;;;1.80;1.80;;;;;;;29.82;48.25;97137.03;5030607;28;20064;-67
2023/08/23 06:43:46;;;;;;;1.85;1.85;;;;;;;29.61;48.23;97068.91;5037834;28;20055;-65
2023/08/23 06:46:13;;;;;;;1.67;1.67;;;;;;;29.93;47.25;97084.97;5038939;28;20044;-64
2023/08/23 06:48:41;;;;;;;1.90;1.90;;;;;;;30.05;47.11;97086.72;5038956;28;20049;-70
2023/08/23 06:51:07;;;;;;;1.77;1.77;;;;;;;30.28;46.65;97106.56;5022164;28;20053;-65
2023/08/23 06:53:34;;;;;;;1.67;1.67;;;;;;;30.62;46.28;97119.97;5071549;28;20440;-66
2023/08/23 06:56:03;;;;;;;1.45;1.45;;;;;;;30.66;46.42;97103.38;5036318;28;20099;-66
2023/08/23 06:58:30;;;;;;;1.75;1.75;;;;;;;30.64;45.76;97099.44;5038596;28;20045;-62
2023/08/23 07:00:57;;;;;;;1.52;1.52;;;;;;;30.90;45.30;97106.78;5032303;28;20108;-67
2023/08/23 07:03:24;;;;;;;1.75;1.75;;;;;;;31.01;45.14;97088.16;5038688;28;20454;-64
2023/08/23 07:05:51;;;;;;;1.77;1.77;;;;;;;31.54;44.44;97132.16;5041208;28;20070;-71
2023/08/23 07:08:18;;;;;;;1.60;1.60;;;;;;;31.76;43.43;97126.59;5036980;28;20045;-72
2023/08/23 07:10:45;;;;;;;1.60;1.60;;;;;;;31.52;43.28;97105.34;5040672;28;20053;-71
2023/08/23 07:13:11;;;;;;;1.90;1.90;;;;;;;31.73;42.84;97123.97;5028298;28;20057;-67
2023/08/23 07:15:40;;;;;;;1.90;1.90;;;;;;;31.75;42.61;97136.50;5030966;28;20057;-63
2023/08/23 07:18:08;;;;;;;1.65;1.65;;;;;;;31.90;43.25;97119.19;5038946;28;20098;-62
2023/08/23 07:20:35;;;;;;;1.70;1.70;;;;;;;32.20;43.01;97126.16;5032789;28;20049;-63
2023/08/23 07:23:02;;;;;;;1.60;1.60;;;;;;;32.00;42.55;97106.22;5035043;28;20053;-61
2023/08/23 07:25:29;;;;;;;1.70;1.70;;;;;;;30.56;42.02;96881.75;5041299;28;20754;-63
2023/08/23 07:27:56;;;;;;;1.83;1.83;;;;;;;32.24;42.01;97120.97;5036381;28;20141;-67
2023/08/23 07:30:23;;;;;;;1.85;1.85;;;;;;;31.97;42.32;97095.78;5025262;28;20048;-62
2023/08/23 07:32:50;;;;;;;1.88;1.88;;;;;;;32.05;41.51;97131.28;5034729;28;20053;-65
2023/08/23 07:35:17;;;;;;;2.15;2.15;;;;;;;32.06;41.39;97115.63;5034223;28;20638;-61
2023/08/23 07:37:43;;;;;;;1.60;1.60;;;;;;;32.04;41.10;97063.78;5038006;28;20076;-68
2023/08/23 07:40:11;;;;;;;2.03;2.03;;;;;;;32.24;40.36;97086.56;5039558;28;20163;-67
2023/08/23 07:42:38;;;;;;;1.67;1.67;;;;;;;32.21;40.71;97076.91;5038991;28;20095;-66
2023/08/23 07:45:05;;;;;;;1.80;1.80;;;;;;;31.87;40.55;96999.81;5042911;28;20051;-66
2023/08/23 07:47:32;;;;;;;1.88;1.88;;;;;;;32.32;41.34;97036.00;5038029;28;20503;-62
2023/08/23 07:49:58;;;;;;;1.50;1.50;;;;;;;32.47;40.32;97076.75;5035404;28;20140;-63
2023/08/23 07:52:28;;;;;;;1.88;1.88;;;;;;;32.88;40.20;97103.81;5026772;28;20049;-68
2023/08/23 07:54:55;;;;;;;1.90;1.90;;;;;;;32.79;39.68;97081.06;5040835;28;20053;-63
2023/08/23 07:57:21;;;;;;;1.58;1.58;;;;;;;33.01;38.38;97106.97;5031400;28;20724;-60
2023/08/23 07:59:48;;;;;;;1.70;1.70;;;;;;;32.14;38.58;96981.97;5036151;28;20048;-73
2023/08/23 08:02:15;;;;;;;1.60;1.60;;;;;;;31.88;38.91;96949.81;5036796;28;20056;-66
2023/08/23 08:04:43;;;;;;;1.90;1.90;;;;;;;32.73;39.67;97111.81;5025275;28;20100;-77
2023/08/23 08:07:09;;;;;;;1.80;1.80;;;;;;;32.93;39.84;97097.28;5067271;28;20045;-67
2023/08/23 08:09:36;;;;;;;1.88;1.88;;;;;;;32.49;38.68;97005.31;5039910;28;20190;-64
2023/08/23 08:12:03;;;;;;;1.80;1.80;;;;;;;32.78;38.13;97067.22;5039036;28;20059;-65
2023/08/23 08:14:30;;;;;;;1.70;1.70;;;;;;;32.46;38.27;96983.41;5029528;28;20057;-63
2023/08/23 08:16:57;;;;;;;1.70;1.70;;;;;;;32.85;38.43;97033.03;5033791;28;20063;-65
2023/08/23 08:19:24;;;;;;;1.83;1.83;;;;;;;32.83;38.12;97064.38;5035916;28;20063;-68
2023/08/23 08:21:52;;;;;;;1.70;1.70;;;;;;;32.07;38.20;96979.63;5039857;28;20106;-65
2023/08/23 08:24:19;;;;;;;2.17;2.17;;;;;;;32.67;38.08;97073.72;5041756;28;20080;-64
2023/08/23 08:26:46;;;;;;;2.00;2.00;;;;;;;32.77;38.10;97072.16;5039199;28;20140;-73
2023/08/23 08:29:12;;;;;;;1.60;1.60;;;;;;;32.66;37.73;96980.31;5040878;28;20291;-63
2023/08/23 08:31:40;;;;;;;1.80;1.80;;;;;;;33.66;37.39;97091.13;5041176;28;20040;-72
2023/08/23 08:34:08;;;;;;;1.67;1.67;;;;;;;33.16;37.01;97064.47;5040018;28;20110;-72
2023/08/23 08:36:34;;;;;;;1.77;1.77;;;;;;;32.80;36.75;97002.25;5041034;28;20426;-64
2023/08/23 08:39:01;;;;;;;1.50;1.50;;;;;;;33.52;35.58;97080.69;5040574;28;20055;-71
2023/08/23 08:41:28;;;;;;;1.95;1.95;;;;;;;33.07;34.99;96983.53;5040737;28;20685;-70
2023/08/23 08:43:55;;;;;;;1.80;1.80;;;;;;;33.42;34.77;97093.75;5039477;28;20477;-71
2023/08/23 08:46:22;;;;;;;1.75;1.75;;;;;;;33.15;35.28;97096.56;5040511;28;20052;-62
2023/08/23 08:48:49;;;;;;;1.73;1.73;;;;;;;33.58;34.70;97072.84;5041229;28;20060;-72
2023/08/23 08:51:20;;;;;;;1.95;1.95;;;;;;;33.55;34.80;97085.38;5041226;28;20045;-71
2023/08/23 08:53:51;;;;;;;1.85;1.85;;;;;;;33.02;34.96;97002.28;5041382;28;20053;-62
2023/08/23 08:56:19;;;;;;;1.90;1.90;;;;;;;33.75;34.71;97076.47;5040740;28;20060;-62
2023/08/23 08:58:48;;;;;;;1.90;1.90;;;;;;;33.28;34.56;96999.97;5041153;28;20385;-71
2023/08/23 09:01:15;;;;;;;2.00;2.00;;;;;;;33.53;34.25;97019.03;5040403;28;20535;-63
2023/08/23 09:03:42;;;;;;;1.80;1.80;;;;;;;33.49;34.00;97040.72;5040929;28;20163;-63
2023/08/23 09:06:09;;;;;;;1.85;1.85;;;;;;;33.37;34.36;97047.75;5024662;28;20091;-63
2023/08/23 09:08:36;;;;;;;1.70;1.70;;;;;;;33.77;33.75;97043.56;5043679;28;20071;-65
2023/08/23 09:11:03;;;;;;;1.73;1.73;;;;;;;33.39;33.28;97002.84;5043556;28;20060;-71
2023/08/23 09:13:30;;;;;;;1.70;1.70;;;;;;;33.56;34.21;97069.69;5044007;28;20499;-69
2023/08/23 09:15:58;;;;;;;2.00;2.00;;;;;;;33.98;33.59;97064.97;5043103;28;20124;-69
2023/08/23 09:18:25;;;;;;;1.95;1.95;;;;;;;34.18;33.19;97007.91;5043659;28;20063;-63
2023/08/23 09:20:52;;;;;;;1.95;1.95;;;;;;;33.66;33.51;97050.88;5044453;28;20053;-70
2023/08/23 09:23:19;;;;;;;1.80;1.80;;;;;;;33.68;33.51;97036.78;5042119;28;20060;-63
2023/08/23 09:25:48;;;;;;;1.70;1.70;;;;;;;33.93;32.93;96999.63;5043913;28;20049;-69
2023/08/23 09:28:15;;;;;;;2.00;2.00;;;;;;;34.52;33.14;97035.25;5043943;28;20522;-64
2023/08/23 09:30:47;;;;;;;1.52;1.52;;;;;;;34.69;32.46;97038.03;5043766;28;20365;-62
2023/08/23 09:33:13;;;;;;;1.70;1.70;;;;;;;34.33;31.27;96965.22;5043747;28;20063;-63
2023/08/23 09:35:47;;;;;;;1.70;1.70;;;;;;;34.96;31.24;96993.91;5034167;28;20554;-63
2023/08/23 09:38:19;;;;;;;2.00;2.00;;;;;;;35.39;29.36;97048.88;5052707;28;20439;-63
2023/08/23 09:40:47;;;;;;;2.30;2.30;;;;;;;35.28;29.08;97009.38;5037058;28;20080;-63
2023/08/23 09:43:18;;;;;;;1.70;1.70;;;;;;;35.79;28.29;97028.56;5060905;28;20059;-69
2023/08/23 09:45:45;;;;;;;1.77;1.77;;;;;;;35.78;29.77;97024.13;5063263;28;20717;-63
2023/08/23 09:48:13;;;;;;;2.15;2.15;;;;;;;35.28;30.98;97025.88;5063343;28;20341;-70
2023/08/23 09:50:40;;;;;;;1.92;1.92;;;;;;;35.06;30.41;96940.44;5062479;28;20106;-64
2023/08/23 09:53:15;;;;;;;1.75;1.75;;;;;;;35.91;29.10;97021.41;5062248;28;20064;-63
2023/08/23 09:55:42;;;;;;;2.17;2.17;;;;;;;35.88;28.50;96970.56;5063465;28;20537;-71
2023/08/23 09:58:10;;;;;;;1.85;1.85;;;;;;;36.48;28.42;97012.31;5063803;28;20059;-69
2023/08/23 10:00:37;;;;;;;2.10;2.10;;;;;;;36.58;26.90;96998.28;5063415;28;20040;-62
2023/08/23 10:03:05;;;;;;;1.67;1.67;;;;;;;36.61;27.52;97007.97;5063041;28;20048;-64
2023/08/23 10:05:34;;;;;;;2.03;2.03;;;;;;;36.06;29.29;96992.88;5051386;28;20734;-68
2023/08/23 10:08:02;;;;;;;2.00;2.00;;;;;;;36.17;29.45;97010.06;5042730;28;20114;-66
2023/08/23 10:10:30;;;;;;;1.85;1.85;;;;;;;35.43;29.90;97009.00;5043287;28;20084;-71
2023/08/23 10:13:06;;;;;;;2.03;2.03;;;;;;;35.09;30.95;96996.97;5041627;28;20072;-64
2023/08/23 10:15:37;;;;;;;2.30;2.30;;;;;;;35.41;30.57;97000.88;5041873;28;20052;-64
2023/08/23 10:18:08;;;;;;;2.00;2.00;;;;;;;34.99;29.97;97001.47;5039066;28;20498;-62
2023/08/23 10:20:36;;;;;;;1.80;1.80;;;;;;;35.72;29.39;96979.38;5042537;28;20056;-62
2023/08/23 10:23:15;;;;;;;2.10;2.10;;;;;;;36.27;27.83;97002.59;5042895;28;20515;-63
2023/08/23 10:25:44;;;;;;;1.85;1.85;;;;;;;36.07;28.92;96935.97;5040736;28;20146;-62
2023/08/23 10:28:13;;;;;;;1.88;1.88;;;;;;;36.06;28.70;96964.03;5050256;28;20051;-67
2023/08/23 10:30:42;;;;;;;1.63;1.63;;;;;;;34.64;29.50;96771.94;5040595;28;20122;-72
2023/08/23 10:33:16;;;;;;;1.95;1.95;;;;;;;35.78;28.52;96920.31;5038037;28;20128;-74
2023/08/23 10:35:45;;;;;;;2.13;2.13;;;;;;;36.00;28.90;96988.50;5040233;28;20063;-61
2023/08/23 10:38:12;;;;;;;1.95;1.95;;;;;;;35.88;28.67;96949.59;5035287;28;20308;-65
2023/08/23 10:40:42;;;;;;;1.90;1.90;;;;;;;36.57;27.78;96984.38;5040811;28;20063;-72
2023/08/23 10:43:11;;;;;;;2.00;2.00;;;;;;;36.16;26.98;96906.75;5040520;28;20045;-70
2023/08/23 10:45:51;;;;;;;1.98;1.98;;;;;;;36.45;26.09;96949.13;5041702;28;20385;-68
2023/08/23 10:48:20;;;;;;;1.90;1.90;;;;;;;36.63;27.14;96990.88;5039621;28;20045;-72
2023/08/23 10:50:48;;;;;;;2.13;2.13;;;;;;;36.76;27.39;96985.94;5044942;28;20061;-67
2023/08/23 10:53:18;;;;;;;2.00;2.00;;;;;;;36.67;27.74;96976.91;5040034;28;20506;-64
2023/08/23 10:55:46;;;;;;;2.15;2.15;;;;;;;36.53;28.59;96947.94;5038593;28;20053;-64
2023/08/23 10:58:14;;;;;;;2.10;2.10;;;;;;;36.80;28.30;96974.13;5040646;28;20059;-66
2023/08/23 11:00:42;;;;;;;2.40;2.35;;;;;;;36.25;28.34;96901.38;5042262;28;20052;-62
2023/08/23 11:03:12;;;;;;;2.13;2.13;;;;;;;36.85;28.71;96929.94;5040362;28;20045;-68
2023/08/23 11:05:39;;;;;;;2.20;2.20;;;;;;;37.14;28.41;96911.56;5033864;28;20766;-61
2023/08/23 11:08:06;;;;;;;2.20;2.20;;;;;;;37.84;28.02;96960.00;5040537;28;20048;-64
2023/08/23 11:10:33;;;;;;;2.38;2.38;;;;;;;36.88;27.96;96859.50;5039229;28;20076;-65
2023/08/23 11:13:00;;;;;;;2.13;2.13;;;;;;;37.45;27.73;96890.53;5041329;28;20053;-67
2023/08/23 11:15:28;;;;;;;2.05;2.05;;;;;;;37.76;28.03;96928.06;5040642;28;20053;-65
2023/08/23 11:17:55;;;;;;;2.08;2.08;;;;;;;38.05;27.88;96949.28;5040368;28;20063;-65
2023/08/23 11:20:22;;;;;;;1.83;1.83;;;;;;;37.31;27.99;96851.38;5041838;28;20198;-64
2023/08/23 11:22:49;;;;;;;2.35;2.35;;;;;;;37.69;27.56;96872.97;5039941;28;20063;-62
2023/08/23 11:25:16;;;;;;;2.25;2.25;;;;;;;37.85;28.03;96918.16;5039383;28;20044;-68
2023/08/23 11:27:42;;;;;;;2.20;2.20;;;;;;;38.00;27.98;96941.53;5038250;28;20065;-70
2023/08/23 11:30:09;;;;;;;2.08;2.08;;;;;;;38.17;27.11;96932.50;5038615;28;20079;-69
2023/08/23 11:32:37;;;;;;;2.60;2.50;;;;;;;38.20;27.71;96929.28;5039678;28;20044;-64
2023/08/23 11:35:06;;;;;;;1.73;1.73;;;;;;;36.57;27.84;96920.88;5040180;28;20894;-66